M I D A S
Marine Information and Data Acquisition System
Tripno 2202 of the Zeeleeuw from 2011-10-20 06:37:34 to 2011-10-20 15:03:50
Back to CruiseResearch ActivitiesStationsMapUnderway DataData graphs

EquipmentUnitsComment
TimeDGPSUTC
LatitudeDGPSDM.mWGS84
LongitudeDGPSDM.mWGS84
TemperatureSBE03/SBE38deg celciusITS90
ConductivitySBE21S/mITS90
SalinitySBE21 Practical Salinity Units
ChlorophylAChelsea fluorimeterg/lCalibrated in Aceton
Missing or incorrect values are displayed as -999
Sea surface data collected by the RV Zeeleeuw from 2011-10-20 06:34:08 to 2011-10-20 15:12:48
Time Latitude Longitude Temperature Conductivity Salinity ChlorophylA
2011-10-20 06:35:16 51°13.656 2°55.939 17.784 1.28979 8.882371 -3.020363
2011-10-20 06:36:17 51°13.684 2°55.839 17.7749 1.271239 8.744984 -3.020363
2011-10-20 06:37:17 51°13.737 2°55.732 17.7797 1.275568 8.777882 -3.020363
2011-10-20 06:38:16 51°13.811 2°55.654 17.7754 1.260212 8.664193 -3.020363
2011-10-20 06:39:16 51°13.896 2°55.614 17.7643 1.330502 9.189177 -3.020363
2011-10-20 06:40:16 51°13.957 2°55.631 17.7538 1.316794 9.087854 -3.020363
2011-10-20 06:41:16 51°13.966 2°55.615 17.3954 1.057436 7.170519 -3.020363
2011-10-20 06:42:16 51°14.025 2°55.526 17.5539 1.202297 8.23794 -3.020363
2011-10-20 06:43:15 51°14.156 2°55.409 17.5451 1.27093 8.747189 -3.020363
2011-10-20 06:44:17 51°14.323 2°55.261 17.5476 1.002222 6.769893 -3.020363
2011-10-20 06:45:14 51°14.482 2°55.106 13.9734 1.145006 7.771314 -3.020363
2011-10-20 06:46:13 51°14.647 2°54.94 13.6845 1.788267 13.645641 -3.020363
2011-10-20 06:47:13 51°14.811 2°54.773 13.7051 2.007549 15.595263 -3.020363
2011-10-20 06:48:13 51°14.949 2°54.571 13.7932 2.105818 16.405178 -3.020363
2011-10-20 06:49:13 51°15.085 2°54.351 13.8826 2.177881 16.98122 -3.020363
2011-10-20 06:50:13 51°15.243 2°54.167 13.9554 2.233328 17.420605 -3.020363
2011-10-20 06:51:12 51°15.406 2°54.005 13.9565 2.265133 17.667526 -3.020363
2011-10-20 06:52:13 51°15.566 2°53.818 13.9709 2.293326 17.909416 -3.020363
2011-10-20 06:53:13 51°15.713 2°53.62 14.0258 2.315117 18.085122 -3.020363
2011-10-20 06:54:12 51°15.877 2°53.451 14.0997 2.319661 18.096084 -3.020363
2011-10-20 06:55:13 51°16.056 2°53.317 14.1674 2.338148 18.220056 -3.020363
2011-10-20 06:56:13 51°16.243 2°53.215 14.2112 2.355603 18.342451 -3.020363
2011-10-20 06:57:14 51°16.43 2°53.1 14.2425 2.360457 18.364021 -3.020363
2011-10-20 06:58:13 51°16.608 2°52.975 14.2687 2.371508 18.443878 -3.020363
2011-10-20 06:59:13 51°16.79 2°52.855 14.2914 2.380185 18.50583 -3.020363
2011-10-20 07:00:12 51°16.972 2°52.739 14.2857 2.38318 18.524559 -3.020363
2011-10-20 07:01:12 51°17.169 2°52.664 14.2772 2.387725 18.564854 -3.020363
2011-10-20 07:02:12 51°17.364 2°52.607 14.2685 2.393303 18.616769 -3.020363
2011-10-20 07:03:12 51°17.559 2°52.539 14.2626 2.394233 18.630306 -3.020363
2011-10-20 07:04:12 51°17.755 2°52.5 14.2614 2.386279 18.564127 -3.020363
2011-10-20 07:05:12 51°17.959 2°52.489 14.2641 2.395989 18.646077 -3.020363
2011-10-20 07:06:13 51°18.164 2°52.478 14.2672 2.394233 18.629905 -3.020363
2011-10-20 07:07:12 51°18.359 2°52.453 14.2745 2.403426 18.706265 -3.020363
2011-10-20 07:08:12 51°18.556 2°52.432 14.2782 2.397641 18.65414 -3.020363
2011-10-20 07:09:12 51°18.749 2°52.419 14.2705 2.404665 18.714416 -3.020363
2011-10-20 07:10:13 51°18.948 2°52.396 14.2759 2.404769 18.716909 -3.020363
2011-10-20 07:11:13 51°19.141 2°52.386 14.2914 2.403736 18.703671 -3.020363
2011-10-20 07:12:14 51°19.333 2°52.369 14.2919 2.407144 18.725878 -3.020363
2011-10-20 07:13:13 51°19.523 2°52.348 14.2417 2.403426 18.699017 -3.020363
2011-10-20 07:14:12 51°19.714 2°52.326 14.1814 2.407971 18.762801 -3.020363
2011-10-20 07:15:12 51°19.911 2°52.307 14.1323 2.410554 18.813241 -3.020363
2011-10-20 07:16:12 51°20.11 2°52.29 14.0961 2.400948 18.753397 -3.020363
2011-10-20 07:17:13 51°20.31 2°52.265 14.0687 2.399915 18.761195 -3.020363
2011-10-20 07:18:13 51°20.499 2°52.236 14.0427 2.399502 18.769035 -3.020363
2011-10-20 07:19:13 51°20.69 2°52.218 14.0298 2.393098 18.723091 -3.020363
2011-10-20 07:20:12 51°20.879 2°52.196 14.0169 2.397127 18.766161 -3.020363
2011-10-20 07:21:12 51°21.075 2°52.175 14.0053 2.397437 18.774112 -3.020363
2011-10-20 07:22:12 51°21.276 2°52.187 14.0219 2.391549 18.726457 -3.020363
2011-10-20 07:23:12 51°21.472 2°52.189 14.0284 2.392892 18.730253 -3.020363
2011-10-20 07:24:12 51°21.666 2°52.188 14.0327 2.393201 18.73291 -3.020363
2011-10-20 07:25:12 51°21.861 2°52.2 14.0654 2.394957 18.742682 -3.020363
2011-10-20 07:26:13 51°22.059 2°52.206 14.1006 2.397849 18.749999 -3.020363
2011-10-20 07:27:13 51°22.258 2°52.203 14.1155 2.392271 18.688467 -3.020363
2011-10-20 07:28:12 51°22.45 2°52.209 14.1606 2.400638 18.749935 -3.020363
2011-10-20 07:29:12 51°22.65 2°52.222 14.1744 2.399501 18.721591 -3.020363
2011-10-20 07:30:12 51°22.85 2°52.226 14.1776 2.407249 18.78214 -3.020363
2011-10-20 07:31:12 51°23.05 2°52.223 14.2752 2.410141 18.802805 -3.020363
2011-10-20 07:32:12 51°23.241 2°52.224 14.3801 2.406421 18.715689 -3.020363
2011-10-20 07:33:12 51°23.438 2°52.225 14.4309 2.407867 18.685011 -3.020363
2011-10-20 07:34:12 51°23.644 2°52.224 14.4598 2.421089 18.77691 -3.020363
2011-10-20 07:35:13 51°23.85 2°52.224 14.4894 2.420469 18.757176 -3.020363
2011-10-20 07:36:13 51°24.045 2°52.226 14.5254 2.4152 18.696843 -3.020363
2011-10-20 07:37:12 51°24.236 2°52.222 14.5429 2.421088 18.731568 -3.020363
2011-10-20 07:38:12 51°24.434 2°52.22 14.5496 2.420055 18.715614 -3.020363
2011-10-20 07:39:12 51°24.635 2°52.215 14.5545 2.42491 18.754354 -3.020363
2011-10-20 07:40:13 51°24.833 2°52.211 14.6042 2.422844 18.730848 -3.020363
2011-10-20 07:41:12 51°25.023 2°52.214 14.6868 2.423256 18.703215 -3.020363
2011-10-20 07:42:12 51°25.223 2°52.205 14.7479 2.423876 18.675045 -3.020363
2011-10-20 07:43:12 51°25.416 2°52.138 14.816 2.428834 18.686723 -3.020363
2011-10-20 07:44:13 51°25.614 2°52.077 14.8726 2.431726 18.679407 -3.020363
2011-10-20 07:45:12 51°25.798 2°52.029 14.91 2.434204 18.676156 -3.020363
2011-10-20 07:46:13 51°25.992 2°51.974 14.9378 2.439059 18.69998 -3.020363
2011-10-20 07:47:12 51°26.18 2°51.923 14.9513 2.442675 18.718895 -3.020363
2011-10-20 07:48:12 51°26.369 2°51.857 14.957 2.440919 18.698623 -3.020363
2011-10-20 07:49:12 51°26.54 2°51.757 14.962 2.446084 18.739616 -3.020363
2011-10-20 07:50:12 51°26.612 2°51.718 14.9677 2.447013 18.744654 -3.020363
2011-10-20 07:51:12 51°26.624 2°51.723 14.9743 2.449699 18.763247 -3.020363
2011-10-20 07:52:15 51°26.612 2°51.749 14.981 2.454761 18.803364 -3.020363
2011-10-20 07:53:13 51°26.602 2°51.77 14.9845 2.449699 18.757314 -3.020363
2011-10-20 07:54:12 51°26.603 2°51.775 14.9886 2.454451 18.795215 -3.020363
2011-10-20 07:55:12 51°26.605 2°51.777 14.9909 2.452282 18.774635 -3.020363
2011-10-20 07:56:13 51°26.606 2°51.778 14.9942 2.451869 18.76919 -3.020363
2011-10-20 07:57:13 51°26.608 2°51.78 14.9955 2.456621 18.80827 -3.020363
2011-10-20 07:58:13 51°26.607 2°51.78 14.9967 2.455484 18.797943 -3.020363
2011-10-20 07:59:12 51°26.608 2°51.78 14.9967 2.456517 18.806214 -3.020363
2011-10-20 08:00:12 51°26.607 2°51.778 14.9953 2.448976 18.74295 -3.020363
2011-10-20 08:01:12 51°26.604 2°51.777 14.9954 2.453831 18.784075 -3.020363
2011-10-20 08:02:12 51°26.605 2°51.774 14.9945 2.455588 18.798413 -3.020363
2011-10-20 08:03:12 51°26.605 2°51.776 14.9934 2.44815 18.736808 -3.020363
2011-10-20 08:04:12 51°26.606 2°51.778 14.9917 2.455588 18.799602 -3.020363
2011-10-20 08:05:12 51°26.608 2°51.779 14.9929 2.454451 18.790463 -3.020363
2011-10-20 08:06:12 51°26.608 2°51.78 14.9899 2.451559 18.76659 -3.020363
2011-10-20 08:07:12 51°26.607 2°51.778 14.9885 2.449906 18.753119 -3.020363
2011-10-20 08:08:12 51°26.606 2°51.776 14.9892 2.452798 18.777386 -3.020363
2011-10-20 08:09:12 51°26.605 2°51.774 14.9903 2.452592 18.775653 -3.020363
2011-10-20 08:10:12 51°26.605 2°51.774 14.9895 2.454658 18.79378 -3.020363
2011-10-20 08:11:13 51°26.605 2°51.775 14.9908 2.454348 18.790388 -3.020363
2011-10-20 08:12:12 51°26.606 2°51.776 14.9892 2.454141 18.788654 -3.020363
2011-10-20 08:13:13 51°26.605 2°51.777 14.9918 2.462613 18.85935 -3.020363
2011-10-20 08:14:12 51°26.606 2°51.779 14.9926 2.456517 18.807007 -3.020363
2011-10-20 08:15:12 51°26.607 2°51.776 14.9936 2.44598 18.718219 -3.020363
2011-10-20 08:16:13 51°26.609 2°51.777 14.9921 2.448976 18.744135 -3.020363
2011-10-20 08:17:13 51°26.607 2°51.782 14.9911 2.455071 18.794872 -3.020363
2011-10-20 08:18:12 51°26.607 2°51.779 14.9904 2.44567 18.716803 -3.020363
2011-10-20 08:19:12 51°26.606 2°51.774 14.9906 2.448253 18.738464 -3.020363
2011-10-20 08:20:12 51°26.603 2°51.772 14.9912 2.461993 18.854147 -3.020363
2011-10-20 08:21:13 51°26.601 2°51.771 14.9891 2.454245 18.789125 -3.020363
2011-10-20 08:22:12 51°26.6 2°51.771 14.9874 2.453108 18.779591 -3.020363
2011-10-20 08:23:12 51°26.601 2°51.772 14.9862 2.457241 18.815057 -3.020363
2011-10-20 08:24:13 51°26.602 2°51.773 14.9906 2.456207 18.80718 -3.020363
2011-10-20 08:25:12 51°26.603 2°51.775 14.9866 2.456311 18.808047 -3.020363
2011-10-20 08:26:13 51°26.604 2°51.774 14.9853 2.44505 18.714365 -3.020363
2011-10-20 08:27:13 51°26.603 2°51.774 14.9855 2.454451 18.792838 -3.020363
2011-10-20 08:28:13 51°26.601 2°51.77 14.987 2.44567 18.71917 -3.020363
2011-10-20 08:29:14 51°26.6 2°51.767 14.9852 2.456104 18.805917 -3.020363
2011-10-20 08:30:13 51°26.599 2°51.763 14.9827 2.456207 18.80718 -3.020363
2011-10-20 08:31:13 51°26.598 2°51.76 14.9828 2.437922 18.654588 -3.020363
2011-10-20 08:32:13 51°26.597 2°51.759 14.9826 2.442468 18.69231 -3.020363
2011-10-20 08:33:13 51°26.596 2°51.757 14.9816 2.441745 18.687034 -3.020363
2011-10-20 08:34:12 51°26.597 2°51.761 14.9844 2.438336 18.658053 -3.020363
2011-10-20 08:35:12 51°26.597 2°51.765 14.9831 2.440712 18.677583 -3.020363
2011-10-20 08:36:13 51°26.605 2°51.765 14.9807 2.444327 18.709088 -3.020363
2011-10-20 08:37:13 51°26.613 2°51.754 14.9817 2.373568 18.116633 -3.020363
2011-10-20 08:38:13 51°26.618 2°51.738 14.9839 2.37863 18.158558 -3.020363
2011-10-20 08:39:13 51°26.613 2°51.734 14.984 2.38586 18.218631 -3.020363
2011-10-20 08:40:12 51°26.607 2°51.735 14.9824 2.387616 18.232933 -3.020363
2011-10-20 08:41:12 51°26.599 2°51.731 14.9809 2.389889 18.251554 -3.020363
2011-10-20 08:42:13 51°26.6 2°51.679 14.981 2.391645 18.266627 -3.020363
2011-10-20 08:43:12 51°26.671 2°51.632 14.986 2.386996 18.228133 -3.020363
2011-10-20 08:44:12 51°26.834 2°51.624 14.9897 2.387513 18.231685 -3.020363
2011-10-20 08:45:13 51°27.031 2°51.678 15.001 2.387513 18.227844 -3.020363
2011-10-20 08:46:12 51°27.228 2°51.71 15.0179 2.380695 18.165113 -3.020363
2011-10-20 08:47:12 51°27.429 2°51.726 15.0227 2.381315 18.164173 -3.020363
2011-10-20 08:48:13 51°27.638 2°51.741 15.0208 2.389269 18.22909 -3.020363
2011-10-20 08:49:12 51°27.838 2°51.766 15.0283 2.38462 18.189872 -3.020363
2011-10-20 08:50:12 51°28.042 2°51.784 15.0444 2.384414 18.183937 -3.020363
2011-10-20 08:51:12 51°28.239 2°51.809 15.0553 2.385756 18.187118 -3.020363
2011-10-20 08:52:12 51°28.439 2°51.821 15.0504 2.390508 18.225258 -3.020363
2011-10-20 08:53:12 51°28.636 2°51.84 15.0344 2.391128 18.233116 -3.020363
2011-10-20 08:54:12 51°28.83 2°51.857 15.01 2.389268 18.227939 -3.020363
2011-10-20 08:55:12 51°29.027 2°51.868 15.0075 2.390302 18.242328 -3.020363
2011-10-20 08:56:12 51°29.227 2°51.886 15.0244 2.380179 18.158122 -3.020363
2011-10-20 08:57:12 51°29.429 2°51.897 15.0454 2.381418 18.160067 -3.020363
2011-10-20 08:58:12 51°29.626 2°51.918 15.0714 2.392264 18.240688 -3.020363
2011-10-20 08:59:12 51°29.824 2°51.944 15.0944 2.382761 18.150281 -3.020363
2011-10-20 09:00:12 51°30.026 2°51.96 15.1228 2.389268 18.193108 -3.020363
2011-10-20 09:01:12 51°30.229 2°51.99 15.1522 2.389681 18.18243 -3.020363
2011-10-20 09:02:12 51°30.429 2°52.016 15.1703 2.388338 18.160575 -3.020363
2011-10-20 09:03:13 51°30.637 2°52.026 15.2318 2.391953 18.181158 -3.020363
2011-10-20 09:04:12 51°30.836 2°52.049 15.3083 2.392262 18.151043 -3.020363
2011-10-20 09:05:12 51°31.041 2°52.067 15.3643 2.396394 18.151996 -3.020363
2011-10-20 09:06:13 51°31.246 2°52.084 15.3955 2.398149 18.144617 -3.020363
2011-10-20 09:07:12 51°31.442 2°52.109 15.4044 2.402901 18.171887 -3.020363
2011-10-20 09:08:12 51°31.643 2°52.1 15.3828 2.407342 18.206789 -3.020363
2011-10-20 09:09:12 51°31.846 2°52.091 15.3462 2.407859 18.222444 -3.020363
2011-10-20 09:10:12 51°32.049 2°52.09 15.3239 2.404244 18.208024 -3.020363
2011-10-20 09:11:12 51°32.252 2°52.074 15.3172 2.400112 18.181333 -3.020363
2011-10-20 09:12:12 51°32.449 2°52.074 15.3029 2.402695 18.206937 -3.020363
2011-10-20 09:13:12 51°32.646 2°52.096 15.2972 2.409099 18.265438 -3.020363
2011-10-20 09:14:12 51°32.841 2°52.173 15.3053 2.40786 18.256667 -3.020363
2011-10-20 09:15:12 51°33.009 2°52.346 15.3116 2.403211 18.214264 -3.020363
2011-10-20 09:16:12 51°33.162 2°52.561 15.3183 2.405277 18.228373 -3.020363
2011-10-20 09:17:12 51°33.301 2°52.794 15.3104 2.394328 18.133345 -3.020363
2011-10-20 09:18:13 51°33.423 2°53.062 15.2837 2.401145 18.194457 -3.020363
2011-10-20 09:19:12 51°33.539 2°53.324 15.2601 2.404038 18.226449 -3.020363
2011-10-20 09:20:12 51°33.653 2°53.564 15.2458 2.404244 18.237682 -3.020363
2011-10-20 09:21:12 51°33.713 2°53.688 15.234 2.403418 18.23996 -3.020363
2011-10-20 09:22:12 51°33.742 2°53.743 15.2216 2.405794 18.265436 -3.020363
2011-10-20 09:23:13 51°33.76 2°53.773 15.2189 2.403935 18.253409 -3.020363
2011-10-20 09:24:12 51°33.769 2°53.789 15.2117 2.397634 18.204437 -3.020363
2011-10-20 09:25:12 51°33.775 2°53.801 15.2082 2.408893 18.300393 -3.020363
2011-10-20 09:26:12 51°33.777 2°53.811 15.2358 2.404038 18.251215 -3.020363
2011-10-20 09:27:12 51°33.775 2°53.819 15.2006 2.405587 18.265246 -3.020363
2011-10-20 09:28:12 51°33.768 2°53.825 15.192 2.404038 18.264581 -3.020363
2011-10-20 09:29:12 51°33.76 2°53.827 15.1896 2.39877 18.225704 -3.020363
2011-10-20 09:30:12 51°33.755 2°53.835 15.1764 2.405381 18.282642 -3.020363
2011-10-20 09:31:12 51°33.769 2°53.872 15.1912 2.407757 18.302041 -3.020363
2011-10-20 09:32:12 51°33.811 2°53.882 15.1896 2.400836 18.24137 -3.020363
2011-10-20 09:33:12 51°33.823 2°53.798 15.1926 2.408893 18.308436 -3.020363
2011-10-20 09:34:12 51°33.78 2°53.751 15.1971 2.405071 18.273177 -3.020363
2011-10-20 09:35:12 51°33.743 2°53.725 15.1972 2.401352 18.240705 -3.020363
2011-10-20 09:36:13 51°33.719 2°53.703 15.1992 2.398873 18.220462 -3.020363
2011-10-20 09:37:12 51°33.702 2°53.687 15.2007 2.40032 18.230967 -3.020363
2011-10-20 09:38:12 51°33.689 2°53.677 15.2095 2.401662 18.240612 -3.020363
2011-10-20 09:39:12 51°33.678 2°53.67 15.2087 2.397117 18.200903 -3.020363
2011-10-20 09:40:12 51°33.67 2°53.667 15.2119 2.404555 18.262764 -3.020363
2011-10-20 09:41:13 51°33.662 2°53.67 15.2083 2.403831 18.255604 -3.020363
2011-10-20 09:42:12 51°33.655 2°53.67 15.209 2.394638 18.179527 -3.020363
2011-10-20 09:43:12 51°33.647 2°53.67 15.2081 2.398254 18.209591 -3.020363
2011-10-20 09:44:12 51°33.639 2°53.67 15.2104 2.400526 18.227728 -3.020363
2011-10-20 09:45:12 51°33.631 2°53.669 15.2092 2.403625 18.25274 -3.020363
2011-10-20 09:46:12 51°33.623 2°53.667 15.2085 2.400629 18.228968 -3.020363
2011-10-20 09:47:12 51°33.613 2°53.668 15.2136 2.405381 18.268493 -3.020363
2011-10-20 09:48:12 51°33.603 2°53.668 15.2107 2.402075 18.238708 -3.020363
2011-10-20 09:49:12 51°33.593 2°53.664 15.2056 2.411269 18.316334 -3.020363
2011-10-20 09:50:12 51°33.584 2°53.659 15.2046 2.40001 18.224576 -3.020363
2011-10-20 09:51:12 51°33.575 2°53.654 15.2032 2.411269 18.319015 -3.020363
2011-10-20 09:52:13 51°33.566 2°53.654 15.2026 2.406931 18.290565 -3.020363
2011-10-20 09:53:12 51°33.557 2°53.654 15.2032 2.412095 18.332796 -3.020363
2011-10-20 09:54:12 51°33.549 2°53.659 15.2122 2.410959 18.321419 -3.020363
2011-10-20 09:55:12 51°33.542 2°53.666 15.2097 2.406207 18.281103 -3.020363
2011-10-20 09:56:12 51°33.537 2°53.671 15.2125 2.412509 18.332783 -3.020363
2011-10-20 09:57:12 51°33.531 2°53.675 15.2159 2.405588 18.274416 -3.020363
2011-10-20 09:58:12 51°33.523 2°53.676 15.2162 2.379764 18.058919 -3.020363
2011-10-20 09:59:12 51°33.513 2°53.674 15.2169 2.37429 18.01268 -3.020363
2011-10-20 10:00:12 51°33.504 2°53.671 15.2226 2.376872 18.034133 -3.020363
2011-10-20 10:01:12 51°33.496 2°53.669 15.2219 2.382243 18.076118 -3.020363
2011-10-20 10:02:12 51°33.489 2°53.673 15.2225 2.380694 18.062111 -3.020363
2011-10-20 10:03:12 51°33.484 2°53.678 15.2217 2.384102 18.090811 -3.020363
2011-10-20 10:04:12 51°33.477 2°53.682 15.2241 2.379867 18.055246 -3.020363
2011-10-20 10:05:12 51°33.47 2°53.683 15.2204 2.374599 18.011863 -3.020363
2011-10-20 10:06:12 51°33.462 2°53.687 15.2254 2.378008 18.039045 -3.020363
2011-10-20 10:07:12 51°33.449 2°53.683 15.2313 2.368092 17.956697 -3.020363
2011-10-20 10:08:12 51°33.425 2°53.626 15.226 2.371397 17.982638 -3.020363
2011-10-20 10:09:12 51°33.415 2°53.511 15.2296 2.371397 17.983766 -3.020363
2011-10-20 10:10:12 51°33.414 2°53.392 15.2305 2.374703 18.009708 -3.020363
2011-10-20 10:11:12 51°33.417 2°53.3 15.2314 2.368195 17.955677 -3.020363
2011-10-20 10:12:12 51°33.418 2°53.238 15.2347 2.375942 18.018495 -3.020363
2011-10-20 10:13:12 51°33.414 2°53.207 15.2318 2.376562 18.022888 -3.020363
2011-10-20 10:14:12 51°33.407 2°53.191 15.2338 2.371191 17.979043 -3.020363
2011-10-20 10:15:12 51°33.399 2°53.185 15.2356 2.376975 18.026696 -3.020363
2011-10-20 10:16:12 51°33.39 2°53.191 15.2436 2.373257 17.995442 -3.020363
2011-10-20 10:17:12 51°33.382 2°53.203 15.2361 2.374703 18.00632 -3.020363
2011-10-20 10:18:12 51°33.377 2°53.212 15.2334 2.374599 18.005839 -3.020363
2011-10-20 10:19:12 51°33.371 2°53.216 15.2363 2.377491 18.029477 -3.020363
2011-10-20 10:20:12 51°33.362 2°53.217 15.2361 2.378318 18.036339 -3.020363
2011-10-20 10:21:12 51°33.353 2°53.218 15.2338 2.372947 17.990989 -3.020363
2011-10-20 10:22:12 51°33.34 2°53.216 15.2353 2.374909 18.008035 -3.020363
2011-10-20 10:23:12 51°33.327 2°53.21 15.2363 2.374186 18.002785 -3.020363
2011-10-20 10:24:12 51°33.316 2°53.204 15.2327 2.375736 18.016026 -3.020363
2011-10-20 10:25:12 51°33.307 2°53.201 15.2332 2.383896 18.0838 -3.020363
2011-10-20 10:26:12 51°33.297 2°53.197 15.232 2.374599 18.006591 -3.020363
2011-10-20 10:27:12 51°33.287 2°53.196 15.2335 2.374909 18.010294 -3.020363
2011-10-20 10:28:12 51°33.276 2°53.197 15.2292 2.375736 18.017156 -3.020363
2011-10-20 10:29:12 51°33.266 2°53.197 15.2302 2.380384 18.056515 -3.020363
2011-10-20 10:30:12 51°33.256 2°53.196 15.229 2.379971 18.053461 -3.020363
2011-10-20 10:31:12 51°33.245 2°53.195 15.2289 2.37243 17.990086 -3.020363
2011-10-20 10:32:12 51°33.233 2°53.192 15.2286 2.374806 18.010189 -3.020363
2011-10-20 10:33:12 51°33.222 2°53.189 15.2272 2.374599 18.007721 -3.020363
2011-10-20 10:34:12 51°33.209 2°53.185 15.2265 2.375219 18.012867 -3.020363
2011-10-20 10:35:12 51°33.185 2°53.128 15.231 2.367886 17.951604 -3.020363
2011-10-20 10:36:12 51°33.201 2°53.027 15.2248 2.376975 18.026319 -3.020363
2011-10-20 10:37:12 51°33.247 2°52.997 15.2249 2.377078 18.028684 -3.020363
2011-10-20 10:38:12 51°33.278 2°53.019 15.2389 2.378318 18.03747 -3.020363
2011-10-20 10:39:12 51°33.292 2°53.035 15.2279 2.377388 18.028243 -3.020363
2011-10-20 10:40:12 51°33.301 2°53.045 15.2334 2.375219 18.011361 -3.020363
2011-10-20 10:41:12 51°33.303 2°53.052 15.2343 2.378731 18.03977 -3.020363
2011-10-20 10:42:12 51°33.3 2°53.058 15.2327 2.377182 18.027658 -3.020363
2011-10-20 10:43:12 51°33.295 2°53.063 15.2339 2.373876 17.999835 -3.020363
2011-10-20 10:44:12 51°33.293 2°53.068 15.2368 2.376768 18.023096 -3.020363
2011-10-20 10:45:12 51°33.317 2°53.095 15.24 2.376562 18.020628 -3.020363
2011-10-20 10:46:12 51°33.351 2°53.13 15.2349 2.370778 17.973358 -3.020363
2011-10-20 10:47:12 51°33.373 2°53.151 15.2343 2.375736 18.015273 -3.020363
2011-10-20 10:48:12 51°33.38 2°53.165 15.2365 2.374393 18.0045 -3.020363
2011-10-20 10:49:12 51°33.381 2°53.172 15.2312 2.372327 17.987348 -3.020363
2011-10-20 10:50:12 51°33.378 2°53.176 15.2322 2.368195 17.954927 -3.020363
2011-10-20 10:51:12 51°33.372 2°53.179 15.231 2.371501 17.982743 -3.020363
2011-10-20 10:52:12 51°33.361 2°53.182 15.2342 2.370365 17.972183 -3.020363
2011-10-20 10:53:13 51°33.349 2°53.18 15.2321 2.373463 17.997157 -3.020363
2011-10-20 10:54:12 51°33.344 2°53.187 15.2285 2.376665 18.023746 -3.020363
2011-10-20 10:55:12 51°33.351 2°53.207 15.2238 2.376252 18.023706 -3.020363
2011-10-20 10:56:12 51°33.363 2°53.232 15.2232 2.374599 18.011863 -3.020363
2011-10-20 10:57:12 51°33.379 2°53.256 15.2197 2.375426 18.018727 -3.020363
2011-10-20 10:58:12 51°33.395 2°53.283 15.2141 2.372327 17.994495 -3.020363
2011-10-20 10:59:12 51°33.412 2°53.312 15.2146 2.371914 17.992946 -3.020363
2011-10-20 11:00:12 51°33.427 2°53.342 15.2089 2.371294 17.988927 -3.020363
2011-10-20 11:01:12 51°33.439 2°53.375 15.2051 2.377698 18.044018 -3.020363
2011-10-20 11:02:12 51°33.451 2°53.406 15.2028 2.370365 17.985344 -3.020363
2011-10-20 11:03:12 51°33.465 2°53.439 15.1979 2.371294 17.994197 -3.020363
2011-10-20 11:04:12 51°33.478 2°53.472 15.1942 2.372431 18.005898 -3.020363
2011-10-20 11:05:12 51°33.487 2°53.503 15.1905 2.37274 18.009604 -3.020363
2011-10-20 11:06:12 51°33.495 2°53.535 15.1908 2.370262 17.989756 -3.020363
2011-10-20 11:07:12 51°33.504 2°53.56 15.1925 2.3746 18.025812 -3.020363
2011-10-20 11:08:12 51°33.516 2°53.585 15.1931 2.368299 17.973823 -3.020363
2011-10-20 11:09:12 51°33.531 2°53.604 15.1967 2.370778 17.992918 -3.020363
2011-10-20 11:10:12 51°33.546 2°53.619 15.1946 2.370158 17.987768 -3.020363
2011-10-20 11:11:12 51°33.564 2°53.633 15.1976 2.373773 18.016681 -3.020363
2011-10-20 11:12:12 51°33.58 2°53.645 15.197 2.373567 18.014964 -3.020363
2011-10-20 11:13:12 51°33.597 2°53.658 15.1973 2.371811 17.999618 -3.020363
2011-10-20 11:14:12 51°33.609 2°53.668 15.1999 2.370985 17.992752 -3.020363
2011-10-20 11:15:12 51°33.611 2°53.673 15.2021 2.373154 18.010023 -3.020363
2011-10-20 11:16:12 51°33.604 2°53.675 15.2008 2.37274 18.005082 -3.020363
2011-10-20 11:17:12 51°33.592 2°53.675 15.2043 2.376356 18.035124 -3.020363
2011-10-20 11:18:12 51°33.577 2°53.673 15.2037 2.372121 17.999556 -3.020363
2011-10-20 11:19:12 51°33.559 2°53.667 15.1994 2.3746 18.020531 -3.020363
2011-10-20 11:20:12 51°33.539 2°53.657 15.1959 2.376872 18.042436 -3.020363
2011-10-20 11:21:12 51°33.521 2°53.648 15.1956 2.375633 18.032511 -3.020363
2011-10-20 11:22:12 51°33.504 2°53.643 15.1941 2.375839 18.034983 -3.020363
2011-10-20 11:23:12 51°33.489 2°53.64 15.1939 2.370158 17.987768 -3.020363
2011-10-20 11:24:12 51°33.479 2°53.639 15.1934 2.374703 18.025539 -3.020363
2011-10-20 11:25:12 51°33.47 2°53.639 15.2017 2.370571 17.990825 -3.020363
2011-10-20 11:26:12 51°33.461 2°53.639 15.2067 2.371708 17.996877 -3.020363
2011-10-20 11:27:12 51°33.453 2°53.637 15.2085 2.371811 17.995475 -3.020363
2011-10-20 11:28:12 51°33.444 2°53.637 15.2162 2.369538 17.974718 -3.020363
2011-10-20 11:29:12 51°33.437 2°53.641 15.2187 2.371398 17.98828 -3.020363
2011-10-20 11:30:12 51°33.451 2°53.653 15.2123 2.372327 17.995248 -3.020363
2011-10-20 11:31:12 51°33.475 2°53.649 15.2106 2.37336 18.004957 -3.020363
2011-10-20 11:32:12 51°33.504 2°53.646 15.2087 2.370881 17.985495 -3.020363
2011-10-20 11:33:12 51°33.521 2°53.676 15.209 2.370675 17.984908 -3.020363
2011-10-20 11:34:12 51°33.545 2°53.709 15.2099 2.370468 17.983568 -3.020363
2011-10-20 11:35:12 51°33.578 2°53.724 15.2136 2.372327 17.998636 -3.020363
2011-10-20 11:36:12 51°33.608 2°53.736 15.2114 2.37243 17.999494 -3.020363
2011-10-20 11:37:12 51°33.638 2°53.753 15.2139 2.376872 18.035265 -3.020363
2011-10-20 11:38:12 51°33.668 2°53.776 15.2137 2.374496 18.014773 -3.020363
2011-10-20 11:39:12 51°33.695 2°53.768 15.2126 2.372534 17.998093 -3.020363
2011-10-20 11:40:12 51°33.703 2°53.722 15.2173 2.371398 17.987527 -3.020363
2011-10-20 11:41:12 51°33.684 2°53.668 15.2192 2.37243 17.994977 -3.020363
2011-10-20 11:42:12 51°33.643 2°53.633 15.2184 2.374393 18.009771 -3.020363
2011-10-20 11:43:12 51°33.609 2°53.606 15.2204 2.37305 17.998242 -3.020363
2011-10-20 11:44:12 51°33.582 2°53.587 15.2221 2.376665 18.027138 -3.020363
2011-10-20 11:45:12 51°33.558 2°53.568 15.223 2.372327 17.990733 -3.020363
2011-10-20 11:46:12 51°33.534 2°53.551 15.2241 2.372534 17.992072 -3.020363
2011-10-20 11:47:12 51°33.512 2°53.537 15.2202 2.374393 18.008641 -3.020363
2011-10-20 11:48:12 51°33.493 2°53.525 15.2236 2.371707 17.986339 -3.020363
2011-10-20 11:49:12 51°33.475 2°53.517 15.2213 2.37398 18.005963 -3.020363
2011-10-20 11:50:12 51°33.456 2°53.51 15.2182 2.374806 18.012449 -3.020363
2011-10-20 11:51:12 51°33.439 2°53.504 15.2168 2.373876 18.005858 -3.020363
2011-10-20 11:52:12 51°33.42 2°53.496 15.2202 2.372327 17.992614 -3.020363
2011-10-20 11:53:12 51°33.388 2°53.456 15.2167 2.371707 17.987843 -3.020363
2011-10-20 11:54:12 51°33.366 2°53.389 15.2167 2.372017 17.990793 -3.020363
2011-10-20 11:55:12 51°33.366 2°53.332 15.2133 2.375219 18.018895 -3.020363
2011-10-20 11:56:12 51°33.368 2°53.319 15.2175 2.374806 18.016217 -3.020363
2011-10-20 11:57:12 51°33.361 2°53.323 15.2124 2.376769 18.034029 -3.020363
2011-10-20 11:58:12 51°33.352 2°53.329 15.2116 2.36489 17.93499 -3.020363
2011-10-20 11:59:12 51°33.34 2°53.339 15.2116 2.37336 18.006087 -3.020363
2011-10-20 12:00:12 51°33.331 2°53.352 15.2158 2.371501 17.990266 -3.020363
2011-10-20 12:01:12 51°33.331 2°53.361 15.2106 2.369951 17.977397 -3.020363
2011-10-20 12:02:12 51°33.342 2°53.363 15.2116 2.373153 18.003618 -3.020363
2011-10-20 12:03:12 51°33.355 2°53.359 15.2124 2.37367 18.008285 -3.020363
2011-10-20 12:04:12 51°33.369 2°53.351 15.2122 2.37305 18.00276 -3.020363
2011-10-20 12:05:12 51°33.377 2°53.339 15.2135 2.37305 18.002007 -3.020363
2011-10-20 12:06:12 51°33.388 2°53.324 15.2165 2.372534 17.99847 -3.020363
2011-10-20 12:07:12 51°33.401 2°53.304 15.2158 2.367886 17.958362 -3.020363
2011-10-20 12:08:12 51°33.406 2°53.271 15.2164 2.370261 17.977339 -3.020363
2011-10-20 12:09:12 51°33.396 2°53.232 15.2238 2.370468 17.977926 -3.020363
2011-10-20 12:10:12 51°33.376 2°53.208 15.2217 2.370055 17.973368 -3.020363
2011-10-20 12:11:12 51°33.356 2°53.2 15.2252 2.37243 17.991967 -3.020363
2011-10-20 12:12:12 51°33.338 2°53.195 15.2259 2.371501 17.983495 -3.020363
2011-10-20 12:13:12 51°33.323 2°53.19 15.2256 2.369435 17.966343 -3.020363
2011-10-20 12:14:12 51°33.309 2°53.187 15.2272 2.373463 17.999039 -3.020363
2011-10-20 12:15:12 51°33.293 2°53.184 15.2271 2.371397 17.981886 -3.020363
2011-10-20 12:16:12 51°33.277 2°53.18 15.2298 2.37367 18.001131 -3.020363
2011-10-20 12:17:12 51°33.261 2°53.174 15.231 2.370468 17.97304 -3.020363
2011-10-20 12:18:12 51°33.244 2°53.169 15.2313 2.37367 17.998496 -3.020363
2011-10-20 12:19:12 51°33.225 2°53.162 15.2309 2.370468 17.971913 -3.020363
2011-10-20 12:20:12 51°33.208 2°53.156 15.2304 2.375736 18.015649 -3.020363
2011-10-20 12:21:12 51°33.192 2°53.149 15.2285 2.371707 17.982579 -3.020363
2011-10-20 12:22:12 51°33.175 2°53.143 15.2288 2.373566 17.998015 -3.020363
2011-10-20 12:23:12 51°33.137 2°53.113 15.2354 2.372017 17.985903 -3.020363
2011-10-20 12:24:12 51°33.118 2°53.019 15.2286 2.370984 17.974322 -3.020363
2011-10-20 12:25:12 51°33.162 2°52.93 15.221 2.37367 18.001507 -3.020363
2011-10-20 12:26:12 51°33.246 2°52.848 15.2225 2.372327 17.990357 -3.020363
2011-10-20 12:27:12 51°33.331 2°52.913 15.2248 2.372327 17.989228 -3.020363
2011-10-20 12:28:12 51°33.408 2°53.023 15.2308 2.37243 17.989334 -3.020363
2011-10-20 12:29:12 51°33.474 2°53.144 15.2315 2.369641 17.964678 -3.020363
2011-10-20 12:30:12 51°33.536 2°53.277 15.2262 2.370468 17.971913 -3.020363
2011-10-20 12:31:12 51°33.604 2°53.414 15.228 2.370674 17.975131 -3.020363
2011-10-20 12:32:12 51°33.67 2°53.554 15.2212 2.372327 17.990357 -3.020363
2011-10-20 12:33:12 51°33.721 2°53.667 15.2037 2.366853 17.948659 -3.020363
2011-10-20 12:34:12 51°33.744 2°53.703 15.1937 2.37336 18.009855 -3.020363
2011-10-20 12:35:12 51°33.75 2°53.708 15.1891 2.367473 17.965077 -3.020363
2011-10-20 12:36:12 51°33.746 2°53.704 15.1831 2.368609 17.976398 -3.020363
2011-10-20 12:37:12 51°33.735 2°53.698 15.1854 2.369229 17.982678 -3.020363
2011-10-20 12:38:12 51°33.718 2°53.688 15.1951 2.369229 17.983054 -3.020363
2011-10-20 12:39:12 51°33.699 2°53.676 15.191 2.369435 17.982889 -3.020363
2011-10-20 12:40:12 51°33.677 2°53.662 15.1878 2.369642 17.984982 -3.020363
2011-10-20 12:41:12 51°33.654 2°53.648 15.1835 2.369332 17.982407 -3.020363
2011-10-20 12:42:12 51°33.633 2°53.637 15.1808 2.367473 17.968838 -3.020363
2011-10-20 12:43:12 51°33.61 2°53.622 15.1763 2.37429 18.024368 -3.020363
2011-10-20 12:44:12 51°33.588 2°53.607 15.1769 2.366956 17.966803 -3.020363
2011-10-20 12:45:12 51°33.566 2°53.594 15.1736 2.371295 18.00437 -3.020363
2011-10-20 12:46:12 51°33.546 2°53.583 15.174 2.36675 17.966214 -3.020363
2011-10-20 12:47:12 51°33.527 2°53.57 15.172 2.369952 17.99396 -3.020363
2011-10-20 12:48:12 51°33.507 2°53.56 15.1718 2.368919 17.98575 -3.020363
2011-10-20 12:49:12 51°33.519 2°53.555 15.1727 2.369229 17.98908 -3.020363
2011-10-20 12:50:12 51°33.531 2°53.497 15.1724 2.369642 17.992515 -3.020363
2011-10-20 12:51:12 51°33.51 2°53.432 15.1735 2.373567 18.024018 -3.020363
2011-10-20 12:52:12 51°33.482 2°53.394 15.1798 2.369539 17.988642 -3.020363
2011-10-20 12:53:12 51°33.456 2°53.367 15.1779 2.372947 18.015847 -3.020363
2011-10-20 12:54:12 51°33.432 2°53.344 15.1785 2.36737 17.96986 -3.020363
2011-10-20 12:55:12 51°33.408 2°53.328 15.1802 2.374187 18.025396 -3.020363
2011-10-20 12:56:12 51°33.387 2°53.318 15.1792 2.373257 18.017291 -3.020363
2011-10-20 12:57:12 51°33.366 2°53.31 15.1787 2.369332 17.984289 -3.020363
2011-10-20 12:58:12 51°33.347 2°53.3 15.1827 2.370881 17.99792 -3.020363
2011-10-20 12:59:12 51°33.326 2°53.29 15.1804 2.375529 18.03505 -3.020363
2011-10-20 13:00:12 51°33.307 2°53.282 15.1824 2.37398 18.023679 -3.020363
2011-10-20 13:01:12 51°33.286 2°53.273 15.183 2.372431 18.009668 -3.020363
2011-10-20 13:02:12 51°33.243 2°53.239 15.183 2.370571 17.993838 -3.020363
2011-10-20 13:03:12 51°33.206 2°53.207 15.1835 2.379248 18.065966 -3.020363
2011-10-20 13:04:12 51°33.172 2°53.18 15.1771 2.367369 17.967603 -3.020363
2011-10-20 13:05:12 51°33.144 2°53.157 15.1792 2.368196 17.975599 -3.020363
2011-10-20 13:06:12 51°33.119 2°53.139 15.1749 2.369022 17.982843 -3.020363
2011-10-20 13:07:12 51°33.095 2°53.125 15.1814 2.372844 18.015742 -3.020363
2011-10-20 13:08:12 51°33.071 2°53.11 15.1802 2.368816 17.981126 -3.020363
2011-10-20 13:09:12 51°33.041 2°53.009 15.2784 2.367989 17.972753 -3.020363
2011-10-20 13:10:12 51°33.121 2°52.916 15.1811 2.367782 17.961637 -3.020363
2011-10-20 13:11:12 51°33.198 2°52.84 15.185 2.367886 17.972271 -3.020363
2011-10-20 13:12:12 51°33.187 2°52.751 15.18 2.371811 18.00414 -3.020363
2011-10-20 13:13:12 51°33.157 2°52.705 15.1823 2.372534 18.010149 -3.020363
2011-10-20 13:14:12 51°33.128 2°52.673 15.1903 2.377698 18.050816 -3.020363
2011-10-20 13:15:12 51°33.103 2°52.648 15.192 2.371294 17.996833 -3.020363
2011-10-20 13:16:12 51°33.079 2°52.626 15.1772 2.376149 18.034916 -3.020363
2011-10-20 13:17:12 51°33.051 2°52.598 15.1881 2.38183 18.080248 -3.020363
2011-10-20 13:18:12 51°33.025 2°52.579 15.1869 2.376356 18.033237 -3.020363
2011-10-20 13:19:12 51°32.994 2°52.551 15.1833 2.382243 18.083682 -3.020363
2011-10-20 13:20:12 51°32.962 2°52.501 15.186 2.375219 18.023796 -3.020363
2011-10-20 13:21:12 51°32.942 2°52.439 15.1866 2.377388 18.041821 -3.020363
2011-10-20 13:22:13 51°32.934 2°52.365 15.1888 2.374393 18.016176 -3.020363
2011-10-20 13:23:13 51°32.934 2°52.28 15.2092 2.372947 18.001525 -3.020363
2011-10-20 13:24:13 51°32.928 2°52.186 15.2301 2.375219 18.011361 -3.020363
2011-10-20 13:25:13 51°32.908 2°52.09 15.2314 2.378937 18.036962 -3.020363
2011-10-20 13:26:13 51°32.872 2°51.996 15.229 2.378834 18.034596 -3.020363
2011-10-20 13:27:13 51°32.81 2°51.905 15.2286 2.376149 18.011174 -3.020363
2011-10-20 13:28:13 51°32.707 2°51.836 15.2291 2.371604 17.973831 -3.020363
2011-10-20 13:29:13 51°32.58 2°51.818 15.2277 2.376562 18.015356 -3.020363
2011-10-20 13:30:13 51°32.441 2°51.804 15.2219 2.373153 17.987816 -3.020363
2011-10-20 13:31:13 51°32.294 2°51.791 15.2171 2.370674 17.969496 -3.020363
2011-10-20 13:32:13 51°32.146 2°51.775 15.2086 2.369641 17.964302 -3.020363
2011-10-20 13:33:13 51°31.987 2°51.758 15.1998 2.376872 18.026592 -3.020363
2011-10-20 13:34:13 51°31.788 2°51.74 15.1905 2.37336 18.002698 -3.020363
2011-10-20 13:35:13 51°31.575 2°51.722 15.1874 2.370571 17.982545 -3.020363
2011-10-20 13:36:13 51°31.36 2°51.705 15.1875 2.370778 17.985013 -3.020363
2011-10-20 13:37:13 51°31.147 2°51.685 15.2003 2.370158 17.979113 -3.020363
2011-10-20 13:38:13 51°30.932 2°51.673 15.2181 2.372947 17.995879 -3.020363
2011-10-20 13:39:13 51°30.718 2°51.66 15.2337 2.370984 17.971692 -3.020363
2011-10-20 13:40:13 51°30.501 2°51.649 15.2661 2.366956 17.930393 -3.020363
2011-10-20 13:41:13 51°30.287 2°51.641 15.301 2.371913 17.958018 -3.020363
2011-10-20 13:42:13 51°30.078 2°51.63 15.3078 2.367265 17.903426 -3.020363
2011-10-20 13:43:13 51°29.875 2°51.613 15.2739 2.369537 17.923364 -3.020363
2011-10-20 13:44:12 51°29.678 2°51.603 15.2257 2.369228 17.938751 -3.020363
2011-10-20 13:45:13 51°29.473 2°51.586 15.1972 2.370571 17.967512 -3.020363
2011-10-20 13:46:12 51°29.273 2°51.57 15.1429 2.375736 18.027333 -3.020363
2011-10-20 13:47:13 51°29.069 2°51.55 15.0739 2.36582 17.966765 -3.020363
2011-10-20 13:48:12 51°28.871 2°51.533 15.0595 2.368713 18.01762 -3.020363
2011-10-20 13:49:13 51°28.664 2°51.51 15.0664 2.367164 18.011522 -3.020363
2011-10-20 13:50:13 51°28.459 2°51.489 15.0645 2.367887 18.015654 -3.020363
2011-10-20 13:51:13 51°28.255 2°51.47 15.0504 2.367164 18.0119 -3.020363
2011-10-20 13:52:13 51°28.05 2°51.448 14.9581 2.364168 17.995637 -3.020363
2011-10-20 13:53:13 51°27.844 2°51.424 14.9114 2.359315 17.995268 -3.020363
2011-10-20 13:54:13 51°27.638 2°51.405 14.8927 2.360141 18.018871 -3.020363
2011-10-20 13:55:12 51°27.436 2°51.389 14.8679 2.357456 18.009719 -3.020363
2011-10-20 13:56:13 51°27.226 2°51.37 14.8742 2.355184 17.996032 -3.020363
2011-10-20 13:57:12 51°27.026 2°51.351 14.8688 2.351465 17.963792 -3.020363
2011-10-20 13:58:13 51°26.819 2°51.331 14.8675 2.354667 17.993232 -3.020363
2011-10-20 13:59:13 51°26.615 2°51.312 14.8636 2.350536 17.958292 -3.020363
2011-10-20 14:00:12 51°26.414 2°51.294 14.878 2.352602 17.975951 -3.020363
2011-10-20 14:01:12 51°26.212 2°51.271 14.8615 2.361174 18.04425 -3.020363
2011-10-20 14:02:12 51°26.009 2°51.254 14.8064 2.35663 18.016118 -3.020363
2011-10-20 14:03:13 51°25.801 2°51.229 14.7806 2.349194 17.979337 -3.020363
2011-10-20 14:04:13 51°25.596 2°51.207 14.7508 2.352189 18.013966 -3.020363
2011-10-20 14:05:13 51°25.39 2°51.179 14.7888 2.347645 17.994539 -3.020363
2011-10-20 14:06:12 51°25.189 2°51.159 14.7303 2.352086 18.025315 -3.020363
2011-10-20 14:07:13 51°24.979 2°51.134 14.705 2.350847 18.034791 -3.020363
2011-10-20 14:08:13 51°24.773 2°51.104 14.6946 2.351054 18.04495 -3.020363
2011-10-20 14:09:13 51°24.566 2°51.075 14.6735 2.35281 18.064691 -3.020363
2011-10-20 14:10:13 51°24.359 2°51.044 14.6639 2.348988 18.0387 -3.020363
2011-10-20 14:11:13 51°24.151 2°51.018 14.658 2.345786 18.01676 -3.020363
2011-10-20 14:12:13 51°23.945 2°50.995 14.6344 2.352397 18.078113 -3.020363
2011-10-20 14:13:12 51°23.742 2°50.981 14.6144 2.34527 18.029663 -3.020363
2011-10-20 14:14:12 51°23.541 2°50.974 14.6063 2.344547 18.030868 -3.020363
2011-10-20 14:15:12 51°23.336 2°50.961 14.6002 2.345167 18.038005 -3.020363
2011-10-20 14:16:12 51°23.132 2°50.95 14.5842 2.3462 18.05093 -3.020363
2011-10-20 14:17:13 51°22.927 2°50.961 14.5747 2.342275 18.025169 -3.020363
2011-10-20 14:18:12 51°22.729 2°50.968 14.5685 2.340623 18.01547 -3.020363
2011-10-20 14:19:13 51°22.524 2°50.976 14.5499 2.343618 18.045324 -3.020363
2011-10-20 14:20:12 51°22.325 2°50.988 14.4861 2.342689 18.054811 -3.020363
2011-10-20 14:21:13 51°22.121 2°50.996 14.4283 2.344239 18.088346 -3.020363
2011-10-20 14:22:12 51°21.926 2°51.01 14.3686 2.340108 18.079342 -3.020363
2011-10-20 14:23:13 51°21.724 2°51.031 14.2286 2.335874 18.084576 -3.020363
2011-10-20 14:24:12 51°21.529 2°51.049 14.157 2.333706 18.126521 -3.020363
2011-10-20 14:25:13 51°21.329 2°51.068 14.1461 2.330711 18.12332 -3.020363
2011-10-20 14:26:13 51°21.132 2°51.09 14.1526 2.325857 18.081227 -3.020363
2011-10-20 14:27:13 51°20.935 2°51.111 14.1489 2.325134 18.078977 -3.020363
2011-10-20 14:28:13 51°20.736 2°51.143 14.079 2.327406 18.108479 -3.020363
2011-10-20 14:29:13 51°20.536 2°51.167 14.0353 2.320487 18.0765 -3.020363
2011-10-20 14:30:13 51°20.336 2°51.192 14.017 2.323482 18.118506 -3.020363
2011-10-20 14:31:13 51°20.134 2°51.216 14.0025 2.31584 18.057197 -3.020363
2011-10-20 14:32:13 51°19.937 2°51.237 13.9709 2.316563 18.076291 -3.020363
2011-10-20 14:33:13 51°19.736 2°51.273 13.9608 2.311192 18.03982 -3.020363
2011-10-20 14:34:13 51°19.536 2°51.312 13.955 2.312535 18.058735 -3.020363
2011-10-20 14:35:13 51°19.337 2°51.367 13.9478 2.310057 18.042644 -3.020363
2011-10-20 14:36:13 51°19.14 2°51.422 13.9236 2.308611 18.034593 -3.020363
2011-10-20 14:37:13 51°18.941 2°51.482 13.895 2.311503 18.065988 -3.020363
2011-10-20 14:38:13 51°18.741 2°51.535 13.8718 2.315428 18.114127 -3.020363
2011-10-20 14:39:13 51°18.545 2°51.593 13.8068 2.312536 18.112615 -3.020363
2011-10-20 14:40:13 51°18.349 2°51.651 13.7234 2.31326 18.150844 -3.020363
2011-10-20 14:41:13 51°18.159 2°51.731 13.6966 2.30727 18.125131 -3.020363
2011-10-20 14:42:13 51°17.966 2°51.814 13.6875 2.305824 18.125384 -3.020363
2011-10-20 14:43:13 51°17.779 2°51.905 13.6823 2.301383 18.092332 -3.020363
2011-10-20 14:44:13 51°17.592 2°51.993 13.675 2.296323 18.049591 -3.020363
2011-10-20 14:45:13 51°17.401 2°52.075 13.6781 2.302829 18.10596 -3.020363
2011-10-20 14:46:13 51°17.211 2°52.166 13.6778 2.30097 18.090362 -3.020363
2011-10-20 14:47:12 51°17.034 2°52.291 13.6732 2.302313 18.106274 -3.020363
2011-10-20 14:48:13 51°16.854 2°52.429 13.6639 2.297666 18.065094 -3.020363
2011-10-20 14:49:12 51°16.678 2°52.563 13.6594 2.299215 18.082383 -3.020363
2011-10-20 14:50:13 51°16.5 2°52.71 13.6617 2.295497 18.05197 -3.020363
2011-10-20 14:51:12 51°16.341 2°52.888 13.813 2.300351 18.087802 -3.020363
2011-10-20 14:52:12 51°16.18 2°53.069 13.9617 2.338973 18.16153 -3.020363
2011-10-20 14:53:12 51°16.017 2°53.247 14.043 2.355365 16.557945 -3.020363
2011-10-20 14:54:13 51°15.859 2°53.448 14.092 2.353196 16.552958 -3.020363
2011-10-20 14:55:13 51°15.699 2°53.631 13.9912 2.364041 16.66482 -3.020363
2011-10-20 14:56:12 51°15.545 2°53.816 13.8978 2.370136 16.722415 -3.020363
2011-10-20 14:57:13 51°15.387 2°54.01 13.8885 2.372512 16.768735 -3.020363
2011-10-20 14:58:12 51°15.234 2°54.194 13.9093 2.372511 16.733064 -3.020363
2011-10-20 14:59:12 51°15.075 2°54.38 13.9225 2.374472 16.695134 -3.020363
2011-10-20 15:00:12 51°14.92 2°54.566 13.8618 2.377571 16.723133 -3.020363
2011-10-20 15:01:13 51°14.763 2°54.755 13.7876 2.378708 16.753634 -3.020363
2011-10-20 15:02:12 51°14.611 2°54.941 13.7303 2.378915 16.767732 -3.020363
2011-10-20 15:03:12 51°14.456 2°55.123 13.5447 2.378708 16.773523 -3.020363
2011-10-20 15:04:13 51°14.299 2°55.274 13.8138 2.380154 16.782435 -3.020363
2011-10-20 15:05:13 51°14.15 2°55.401 13.9749 2.380258 16.789662 -3.020363
2011-10-20 15:06:13 51°14.023 2°55.493 14.1013 2.380154 16.781793 -3.020363
2011-10-20 15:07:12 51°13.922 2°55.563 14.2219 2.379741 16.78021 -3.020363
2011-10-20 15:08:13 51°13.82 2°55.637 14.3025 2.379225 16.775903 -3.020363
2011-10-20 15:09:13 51°13.743 2°55.73 14.3552 2.378398 16.769204 -3.020363
2011-10-20 15:10:12 51°13.689 2°55.841 14.4633 2.377882 16.764897 -3.020363
2011-10-20 15:11:12 51°13.652 2°55.935 14.5384 2.377262 16.759794 -3.020363
2011-10-20 15:12:12 51°13.637 2°56.009 14.6584 2.376642 16.755332 -3.020363